Startpagina
METAR-TAF:

METAR-TAF

Vliegvelden :

Lomé, Togo

breedte: 06-10N, lengte: 001-15E, hoogte: 20 m

Actueel weer

Dit bericht is 35 minuten geleden gemaakt, om 01:00 UTC
Weinig wind
Temperatuur 25°C
Vochtigheid 94%
Druk 1011 hPa
Zicht: 6000 m
Weinig wolken op 1000 ft

METAR: DXXX 290100Z 00000KT 6000 FEW010 25/24 Q1011 NOSIG

Tijdstip: 01:35 (01:35 UTC)

Verwachting

Dit bericht is 2 uur en het 35 minuten geleden gemaakt, om 23:00 UTC
Verwachting geldig van 29 om 00 UTC tot 30 om 06 UTC
Wind 3 kt uit variabele richting
Zicht: 6000 m
Weinig wolken op 1000 ft
Tijdelijke
van 29 om 05 UTC tot 29 om 09 UTC
Zicht: 2000 m
nevel
Wijzigt naar
van 29 om 10 UTC tot 29 om 12 UTC
Wind 10 kt uit het zuiden
Wijzigt naar
van 29 om 20 UTC tot 29 om 22 UTC
Wind 3 kt uit variabele richting

TAF: DXXX 282300Z 2900/3006 VRB03KT 6000 FEW010 TEMPO 2905/2909 2000 BR BECMG 2910/2912 18010KT BECMG 2920/2922 VRB03KT

Waarnemingen en weersverwachtingen van meer dan 4000 vliegvelden (METAR en TAF).

De beschikbare stations zijn de gele en rode punten op de kaart.

Ga met uw muis naar het station om de naam te zien.

Klik dan om waarnemingen en weersverwachtingen te zien.

kaart wijzigen: klik op de groene knoppen met een zwart kruis om in te zoomen, op de groene knop met een streepje om uit te zoomen of op de groene pijlen voor aangrenzende kaarten.


METAR-TAF: